Time;durP1;ratioP1;P1;durP2;ratioP2;P2;SDS_P1;SDS_P2;PMS_P1;PMS_P2;Temp;Humidity;BMP_temperature;BMP_pressure;BME280_temperature;BME280_humidity;BME280_pressure;Samples;Min_cycle;Max_cycle;Signal;HPM_P1;HPM_P2
2022/03/25 00:00:26;;;;;;;22.05;14.43;;;;;;;19.98;41.71;103170.59;5046547;28;20048;-41
2022/03/25 00:02:53;;;;;;;24.38;15.23;;;;;;;19.97;42.21;103166.16;5044734;28;20127;-41
2022/03/25 00:05:20;;;;;;;21.83;14.45;;;;;;;19.96;42.05;103159.94;5043395;28;20038;-41
2022/03/25 00:07:47;;;;;;;23.13;14.93;;;;;;;19.95;41.44;103168.97;5048494;28;20051;-41
2022/03/25 00:10:13;;;;;;;21.65;15.10;;;;;;;19.93;42.21;103168.22;5044456;28;20087;-42
2022/03/25 00:12:40;;;;;;;22.73;14.48;;;;;;;19.93;41.70;103168.22;5047828;28;20124;-41
2022/03/25 00:15:07;;;;;;;20.10;13.85;;;;;;;19.92;42.07;103162.97;5048097;28;20483;-41
2022/03/25 00:17:34;;;;;;;21.85;14.63;;;;;;;19.90;41.82;103170.25;5048008;28;20435;-42
2022/03/25 00:20:01;;;;;;;19.00;13.10;;;;;;;19.90;42.16;103170.25;5043821;28;20140;-42
2022/03/25 00:22:27;;;;;;;23.02;15.02;;;;;;;19.87;42.64;103165.97;5047970;28;20084;-41
2022/03/25 00:24:54;;;;;;;21.00;14.27;;;;;;;19.88;41.92;103172.22;5041225;28;20053;-42
2022/03/25 00:27:20;;;;;;;20.80;13.38;;;;;;;19.85;41.97;103169.72;5044833;28;20383;-42
2022/03/25 00:29:47;;;;;;;20.90;14.15;;;;;;;19.85;42.32;103173.28;5041347;28;20184;-42
2022/03/25 00:32:15;;;;;;;23.42;15.02;;;;;;;19.84;42.23;103166.19;5044415;28;20328;-42
2022/03/25 00:34:43;;;;;;;18.90;14.02;;;;;;;19.84;42.42;103165.34;5045086;28;20037;-42
2022/03/25 00:37:10;;;;;;;18.50;13.38;;;;;;;19.82;42.08;103172.63;5045522;28;20124;-42
2022/03/25 00:39:37;;;;;;;20.52;14.63;;;;;;;19.80;42.55;103169.22;5043465;28;20136;-42
2022/03/25 00:42:05;;;;;;;19.15;13.80;;;;;;;19.79;42.17;103175.56;5048279;28;20036;-42
2022/03/25 00:44:31;;;;;;;24.10;14.25;;;;;;;19.78;42.12;103169.34;5045283;28;20151;-42
2022/03/25 00:46:58;;;;;;;21.38;13.63;;;;;;;19.77;42.00;103169.41;5044029;28;20057;-42
2022/03/25 00:49:25;;;;;;;20.45;13.93;;;;;;;19.76;42.43;103165.88;5045833;28;20048;-43
2022/03/25 00:51:53;;;;;;;20.55;13.98;;;;;;;19.74;42.52;103167.81;5044589;28;20536;-42
2022/03/25 00:54:20;;;;;;;19.77;14.00;;;;;;;19.75;42.75;103171.38;5045422;28;20048;-41
2022/03/25 00:56:47;;;;;;;22.08;14.10;;;;;;;19.72;42.21;103167.06;5045432;28;20099;-42
2022/03/25 00:59:14;;;;;;;20.05;13.68;;;;;;;19.72;42.61;103167.06;5045437;28;20051;-42
2022/03/25 01:01:41;;;;;;;23.20;14.65;;;;;;;19.68;42.34;103174.47;5043916;28;20077;-41
2022/03/25 01:04:08;;;;;;;18.40;13.18;;;;;;;19.69;42.58;103168.13;5044675;28;20454;-42
2022/03/25 01:06:35;;;;;;;20.40;14.00;;;;;;;19.67;42.22;103164.69;5045775;28;20083;-42
2022/03/25 01:09:02;;;;;;;22.85;14.27;;;;;;;19.65;42.45;103165.75;5043681;28;20120;-42
2022/03/25 01:11:29;;;;;;;21.00;13.95;;;;;;;19.63;42.30;103160.50;5047477;28;20037;-42
2022/03/25 01:13:58;;;;;;;21.90;13.65;;;;;;;19.63;42.58;103165.88;5043536;28;20179;-42
2022/03/25 01:16:25;;;;;;;21.58;13.90;;;;;;;19.62;42.62;103177.63;5044770;28;20045;-42
2022/03/25 01:18:52;;;;;;;20.33;13.48;;;;;;;19.59;42.29;103172.41;5044278;28;20372;-41
2022/03/25 01:21:18;;;;;;;22.13;14.27;;;;;;;19.58;43.13;103170.69;5045606;28;20496;-41
2022/03/25 01:23:45;;;;;;;20.35;14.07;;;;;;;19.56;42.36;103169.94;5044444;28;20349;-42
2022/03/25 01:26:12;;;;;;;20.45;13.35;;;;;;;19.54;42.79;103173.69;5042816;28;20065;-42
2022/03/25 01:28:39;;;;;;;19.65;13.63;;;;;;;19.52;42.91;103176.50;5043753;28;20107;-42
2022/03/25 01:31:06;;;;;;;21.38;14.40;;;;;;;19.51;42.35;103176.59;5045619;28;20136;-42
2022/03/25 01:33:33;;;;;;;20.10;13.73;;;;;;;19.48;42.47;103165.06;5046120;28;20052;-41
2022/03/25 01:35:59;;;;;;;20.35;13.07;;;;;;;19.48;42.86;103169.59;5044703;28;20132;-42
2022/03/25 01:38:26;;;;;;;20.42;14.30;;;;;;;19.47;42.93;103175.97;5044572;28;20045;-41
2022/03/25 01:40:54;;;;;;;18.92;13.23;;;;;;;19.45;42.40;103159.03;5044947;28;20037;-42
2022/03/25 01:43:20;;;;;;;18.33;12.88;;;;;;;19.43;43.13;103158.31;5042854;28;20088;-44
2022/03/25 01:45:47;;;;;;;19.00;12.50;;;;;;;19.43;43.10;103159.16;5039989;28;20120;-42
2022/03/25 01:48:16;;;;;;;18.90;13.23;;;;;;;19.41;42.82;103165.59;5044622;28;20071;-40
2022/03/25 01:50:46;;;;;;;21.65;14.65;;;;;;;19.40;42.50;103163.91;5048307;28;20352;-42
2022/03/25 01:53:22;;;;;;;19.55;12.93;;;;;;;19.38;42.81;103163.16;5047494;28;20151;-42
2022/03/25 01:55:52;;;;;;;19.15;13.15;;;;;;;19.36;42.73;103165.06;5040292;28;20067;-40
2022/03/25 01:58:19;;;;;;;19.42;12.80;;;;;;;19.35;43.10;103169.59;5044642;28;20577;-42
2022/03/25 02:00:47;;;;;;;20.77;13.55;;;;;;;19.33;42.88;103165.28;5044734;28;20077;-41
2022/03/25 02:03:16;;;;;;;19.10;13.43;;;;;;;19.31;42.69;103167.22;5038797;28;20057;-42
2022/03/25 02:05:44;;;;;;;19.88;13.05;;;;;;;19.31;42.68;103167.22;5044281;28;20072;-42
2022/03/25 02:08:11;;;;;;;18.75;12.70;;;;;;;19.29;42.95;103170.00;5044127;28;20044;-42
2022/03/25 02:10:40;;;;;;;18.90;13.40;;;;;;;19.30;42.64;103160.13;5044339;28;20756;-43
2022/03/25 02:13:11;;;;;;;20.65;13.65;;;;;;;19.25;42.82;103160.41;5037841;28;20076;-41
2022/03/25 02:15:40;;;;;;;19.95;14.00;;;;;;;19.25;42.80;103160.41;5034757;28;20045;-43
2022/03/25 02:18:09;;;;;;;18.48;13.10;;;;;;;19.23;43.15;103155.16;5044864;28;20063;-42
2022/03/25 02:20:40;;;;;;;17.45;12.40;;;;;;;19.23;42.98;103173.13;5045578;28;20087;-42
2022/03/25 02:23:07;;;;;;;18.95;12.63;;;;;;;19.22;42.92;103158.81;5047201;28;20053;-43
2022/03/25 02:25:34;;;;;;;20.25;13.65;;;;;;;19.21;42.81;103162.47;5043348;28;20059;-42
2022/03/25 02:28:04;;;;;;;19.00;12.77;;;;;;;19.20;43.14;103162.56;5043965;28;20060;-42
2022/03/25 02:30:33;;;;;;;19.02;13.13;;;;;;;19.19;42.80;103164.41;5042883;28;20149;-44
2022/03/25 02:33:02;;;;;;;19.58;13.35;;;;;;;19.17;42.61;103171.69;5045489;28;20056;-41
2022/03/25 02:35:47;;;;;;;18.75;12.77;;;;;;;19.18;42.79;103164.53;5043244;28;20045;-42
2022/03/25 02:38:19;;;;;;;21.42;12.35;;;;;;;19.15;42.95;103156.66;5039862;28;20053;-42
2022/03/25 02:40:46;;;;;;;17.13;11.73;;;;;;;19.14;43.11;103163.00;5039005;28;20124;-43
2022/03/25 02:43:13;;;;;;;20.88;13.77;;;;;;;19.14;42.79;103152.25;5040823;28;20128;-42
2022/03/25 02:45:40;;;;;;;18.88;13.18;;;;;;;19.12;43.25;103160.41;5043127;28;20051;-42
2022/03/25 02:48:08;;;;;;;18.40;12.75;;;;;;;19.10;43.09;103156.13;5044176;28;20438;-43
2022/03/25 02:50:35;;;;;;;19.73;13.35;;;;;;;19.09;42.98;103163.28;5045884;28;20094;-42
2022/03/25 02:53:02;;;;;;;19.58;13.27;;;;;;;19.09;42.78;103163.28;5048922;28;20452;-42
2022/03/25 02:55:29;;;;;;;18.77;13.43;;;;;;;19.07;42.54;103157.19;5041128;28;20084;-42
2022/03/25 02:57:56;;;;;;;21.63;13.93;;;;;;;19.05;42.54;103159.09;5043537;28;20123;-42
2022/03/25 03:00:25;;;;;;;17.58;12.50;;;;;;;19.05;42.83;103164.47;5043730;28;20052;-41
2022/03/25 03:02:53;;;;;;;16.42;11.52;;;;;;;19.04;42.88;103162.75;5043747;28;20072;-42
2022/03/25 03:05:21;;;;;;;19.98;12.85;;;;;;;19.03;42.82;103163.72;5040397;28;20132;-42
2022/03/25 03:07:48;;;;;;;17.75;12.02;;;;;;;19.03;42.74;103158.34;5046575;28;20041;-42
2022/03/25 03:10:16;;;;;;;16.63;11.00;;;;;;;19.01;42.60;103160.25;5045252;28;20050;-42
2022/03/25 03:12:42;;;;;;;18.48;12.27;;;;;;;19.00;43.00;103155.88;5047885;28;20041;-43
2022/03/25 03:15:10;;;;;;;17.33;12.20;;;;;;;18.99;42.89;103156.84;5045356;28;20133;-41
2022/03/25 03:17:37;;;;;;;17.30;11.95;;;;;;;18.99;42.53;103162.22;5050337;28;20041;-42
2022/03/25 03:20:04;;;;;;;18.23;12.80;;;;;;;18.98;42.77;103160.50;5046822;28;20036;-43
2022/03/25 03:22:31;;;;;;;19.00;12.50;;;;;;;18.97;42.65;103164.13;5048378;28;20051;-42
2022/03/25 03:24:58;;;;;;;18.85;12.45;;;;;;;18.95;42.75;103156.19;5045969;28;20053;-43
2022/03/25 03:27:25;;;;;;;18.02;12.45;;;;;;;18.95;43.11;103166.06;5048425;28;20123;-42
2022/03/25 03:29:53;;;;;;;20.58;13.10;;;;;;;18.92;42.79;103160.88;5043183;28;20332;-43
2022/03/25 03:32:19;;;;;;;19.75;12.32;;;;;;;18.91;42.97;103156.50;5047602;28;20048;-42
2022/03/25 03:34:46;;;;;;;18.73;12.35;;;;;;;18.90;42.90;103146.72;5045722;28;20420;-41
2022/03/25 03:37:12;;;;;;;17.40;12.73;;;;;;;18.91;42.54;103151.13;5046277;28;20044;-43
2022/03/25 03:39:39;;;;;;;18.10;13.40;;;;;;;18.90;42.58;103152.09;5046808;28;20132;-42
2022/03/25 03:42:06;;;;;;;18.70;12.63;;;;;;;18.90;42.84;103149.41;5050821;28;20376;-42
2022/03/25 03:44:35;;;;;;;18.98;12.80;;;;;;;18.88;43.00;103146.78;5046655;28;20076;-42
2022/03/25 03:47:03;;;;;;;17.50;11.88;;;;;;;18.88;42.85;103154.00;5044938;28;20340;-42
2022/03/25 03:49:29;;;;;;;17.35;12.57;;;;;;;18.87;42.91;103157.66;5048567;28;20052;-42
2022/03/25 03:51:56;;;;;;;18.27;12.50;;;;;;;18.86;42.87;103153.25;5046277;28;20041;-43
2022/03/25 03:54:23;;;;;;;18.50;12.95;;;;;;;18.83;42.97;103159.69;5044084;28;20045;-44
2022/03/25 03:56:49;;;;;;;17.52;12.27;;;;;;;18.83;42.79;103156.16;5047669;28;20049;-43
2022/03/25 03:59:16;;;;;;;18.80;12.88;;;;;;;18.82;42.51;103159.81;5044321;28;20048;-43
2022/03/25 04:01:42;;;;;;;20.23;12.88;;;;;;;18.80;42.54;103162.56;5046683;28;20538;-40
2022/03/25 04:04:09;;;;;;;18.67;13.60;;;;;;;18.80;42.91;103159.88;5048341;28;20070;-41
2022/03/25 04:06:36;;;;;;;20.35;13.27;;;;;;;18.79;42.80;103158.16;5045573;28;20047;-41
2022/03/25 04:09:02;;;;;;;18.73;13.38;;;;;;;18.78;42.61;103161.84;5045330;28;20641;-40
2022/03/25 04:11:29;;;;;;;21.15;13.15;;;;;;;18.77;42.83;103157.41;5048425;28;20063;-44
2022/03/25 04:13:55;;;;;;;18.95;13.57;;;;;;;18.77;42.58;103154.72;5044742;28;20053;-42
2022/03/25 04:16:22;;;;;;;17.92;12.82;;;;;;;18.77;42.87;103159.22;5046751;28;20049;-43
2022/03/25 04:18:49;;;;;;;18.98;12.38;;;;;;;18.74;42.52;103166.53;5044833;28;20045;-43
2022/03/25 04:21:16;;;;;;;18.38;13.00;;;;;;;18.73;42.80;103161.25;5044012;28;20041;-42
2022/03/25 04:23:42;;;;;;;18.70;13.05;;;;;;;18.73;42.91;103167.50;5043793;28;20056;-42
2022/03/25 04:26:09;;;;;;;17.13;12.07;;;;;;;18.71;42.66;103166.75;5044826;28;20051;-42
2022/03/25 04:28:36;;;;;;;19.50;13.48;;;;;;;18.70;42.76;103162.34;5043523;28;20416;-42
2022/03/25 04:31:03;;;;;;;16.90;12.18;;;;;;;18.70;42.63;103164.16;5047349;28;20131;-43
2022/03/25 04:33:31;;;;;;;17.98;12.90;;;;;;;18.68;42.46;103168.72;5047128;28;20072;-43
2022/03/25 04:35:58;;;;;;;21.27;13.80;;;;;;;18.68;42.86;103172.28;5046144;28;20045;-42
2022/03/25 04:38:24;;;;;;;19.35;13.45;;;;;;;18.67;42.61;103161.63;5045898;28;20399;-43
2022/03/25 04:40:51;;;;;;;16.75;12.55;;;;;;;18.66;42.44;103166.16;5048421;28;20037;-42
2022/03/25 04:43:17;;;;;;;17.88;12.88;;;;;;;18.67;42.60;103161.63;5047380;28;20045;-42
2022/03/25 04:45:44;;;;;;;19.05;13.23;;;;;;;18.69;42.90;103165.97;5046180;28;20155;-42
2022/03/25 04:48:11;;;;;;;19.08;13.20;;;;;;;18.78;42.37;103158.28;5048076;28;20643;-42
2022/03/25 04:50:38;;;;;;;20.17;13.93;;;;;;;18.85;42.14;103157.75;5044585;28;20048;-42
2022/03/25 04:53:05;;;;;;;20.88;14.43;;;;;;;18.94;42.52;103158.97;5045148;28;20047;-43
2022/03/25 04:55:33;;;;;;;21.25;15.18;;;;;;;19.01;42.58;103159.41;5047214;28;20420;-42
2022/03/25 04:57:59;;;;;;;21.55;15.00;;;;;;;19.08;42.65;103169.66;5045949;28;20143;-42
2022/03/25 05:00:29;;;;;;;19.85;14.60;;;;;;;19.15;43.46;103173.66;5041707;28;20143;-42
2022/03/25 05:02:56;;;;;;;24.60;16.52;;;;;;;19.23;43.18;103178.50;5045509;28;20056;-44
2022/03/25 05:05:22;;;;;;;27.15;18.63;;;;;;;19.32;43.60;103174.31;5044000;28;20085;-44
2022/03/25 05:07:50;;;;;;;30.58;19.52;;;;;;;19.40;43.42;103177.34;5049726;28;20045;-43
2022/03/25 05:10:17;;;;;;;29.95;18.95;;;;;;;19.46;43.26;103175.09;5048124;28;20044;-43
2022/03/25 05:12:44;;;;;;;26.98;18.40;;;;;;;19.53;43.43;103183.59;5044058;28;20067;-42
2022/03/25 05:15:11;;;;;;;31.40;19.73;;;;;;;19.59;42.92;103177.78;5031769;28;20414;-41
2022/03/25 05:17:46;;;;;;;34.38;21.20;;;;;;;19.65;43.01;103188.13;5033431;28;20057;-41
2022/03/25 05:20:15;;;;;;;35.08;22.38;;;;;;;19.72;42.72;103183.19;5045715;28;20176;-41
2022/03/25 05:22:42;;;;;;;37.13;24.13;;;;;;;19.76;42.84;103186.53;5046232;28;20436;-41
2022/03/25 05:25:09;;;;;;;36.92;24.75;;;;;;;19.79;42.53;103189.03;5043407;28;20040;-41
2022/03/25 05:28:02;;;;;;;40.65;25.13;;;;;;;19.81;42.25;103185.25;5044646;28;20045;-41
2022/03/25 05:30:33;;;;;;;37.92;23.83;;;;;;;19.83;42.91;103186.00;5042891;28;20053;-41
2022/03/25 05:32:59;;;;;;;37.60;24.35;;;;;;;19.83;42.09;103186.00;5044186;28;20095;-40
2022/03/25 05:35:28;;;;;;;33.92;22.65;;;;;;;19.83;42.75;103187.84;5046403;28;20092;-42
2022/03/25 05:37:55;;;;;;;34.65;22.33;;;;;;;19.82;42.19;103188.78;5044667;28;20132;-43
2022/03/25 05:40:23;;;;;;;34.30;21.98;;;;;;;19.80;42.22;103183.53;5046876;28;20078;-44
2022/03/25 05:42:50;;;;;;;34.72;22.80;;;;;;;19.78;42.44;103193.56;5044158;28;20053;-43
2022/03/25 05:45:18;;;;;;;36.47;23.75;;;;;;;19.76;42.43;103187.41;5046011;28;20056;-43
2022/03/25 05:47:45;;;;;;;34.20;22.05;;;;;;;19.73;41.55;103193.00;5045404;28;20075;-42
2022/03/25 05:50:13;;;;;;;37.03;22.83;;;;;;;19.69;42.13;103192.34;5047135;28;20047;-42
2022/03/25 05:52:41;;;;;;;33.03;21.75;;;;;;;19.66;42.00;103194.41;5045255;28;20087;-42
2022/03/25 05:55:12;;;;;;;36.80;23.30;;;;;;;19.63;41.47;103200.00;5043875;28;20148;-43
2022/03/25 05:57:39;;;;;;;33.70;22.27;;;;;;;19.60;42.14;103197.47;5042601;28;20545;-43
2022/03/25 06:00:08;;;;;;;34.60;22.77;;;;;;;19.57;41.67;103200.38;5044498;28;20063;-42
2022/03/25 06:02:35;;;;;;;36.05;23.30;;;;;;;19.54;41.56;103197.88;5044499;28;20351;-43
2022/03/25 06:05:03;;;;;;;35.10;22.50;;;;;;;19.51;41.69;103207.06;5047520;28;20041;-43
2022/03/25 06:07:37;;;;;;;37.60;22.48;;;;;;;19.48;42.22;103207.25;5042480;28;20144;-42
2022/03/25 06:10:06;;;;;;;34.67;22.90;;;;;;;19.46;41.42;103203.81;5045173;28;20070;-43
2022/03/25 06:12:32;;;;;;;33.97;22.02;;;;;;;19.42;41.65;103208.56;5043499;28;20045;-43
2022/03/25 06:14:59;;;;;;;34.28;22.65;;;;;;;19.40;41.30;103213.16;5040486;28;20052;-42
2022/03/25 06:17:26;;;;;;;37.50;23.67;;;;;;;19.39;41.35;103210.59;5044339;28;20173;-43
2022/03/25 06:19:53;;;;;;;33.85;22.65;;;;;;;19.36;41.71;103211.66;5043761;28;20147;-42
2022/03/25 06:22:19;;;;;;;32.72;22.30;;;;;;;19.34;42.23;103218.13;5045127;28;20040;-42
2022/03/25 06:24:46;;;;;;;32.55;21.40;;;;;;;19.32;42.25;103223.59;5043661;28;20128;-42
2022/03/25 06:27:12;;;;;;;34.03;22.70;;;;;;;19.31;41.59;103219.16;5043660;28;20436;-42
2022/03/25 06:29:39;;;;;;;30.90;20.88;;;;;;;19.30;41.93;103230.91;5044041;28;20134;-42
2022/03/25 06:32:07;;;;;;;31.73;21.67;;;;;;;19.29;42.18;103229.16;5046022;28;20417;-42
2022/03/25 06:34:34;;;;;;;28.33;19.48;;;;;;;19.28;41.62;103223.91;5046623;28;20156;-42
2022/03/25 06:37:02;;;;;;;32.17;22.10;;;;;;;19.27;41.75;103222.19;5044055;28;20045;-42
2022/03/25 06:39:29;;;;;;;30.48;21.48;;;;;;;19.28;42.52;103224.75;5046948;28;20393;-43
2022/03/25 06:41:56;;;;;;;30.98;20.23;;;;;;;19.29;42.21;103226.47;5047924;28;20045;-42
2022/03/25 06:44:23;;;;;;;31.92;21.88;;;;;;;19.33;42.30;103227.13;5044880;28;20136;-43
2022/03/25 06:46:49;;;;;;;28.83;20.50;;;;;;;19.36;42.13;103229.63;5048093;28;20132;-43
2022/03/25 06:49:17;;;;;;;31.60;20.80;;;;;;;19.39;42.42;103224.88;5047844;28;20051;-41
2022/03/25 06:51:43;;;;;;;28.73;19.48;;;;;;;19.41;41.93;103233.69;5049792;28;20110;-41
2022/03/25 06:54:10;;;;;;;30.70;20.67;;;;;;;19.43;41.96;103241.69;5049432;28;20451;-41
2022/03/25 06:56:37;;;;;;;28.85;20.52;;;;;;;19.45;41.83;103245.13;5046684;28;20052;-41
2022/03/25 06:59:04;;;;;;;30.80;21.08;;;;;;;19.46;41.67;103236.09;5043440;28;20450;-40
2022/03/25 07:01:32;;;;;;;29.98;20.40;;;;;;;19.47;41.76;103238.69;5045505;28;20144;-41
2022/03/25 07:03:59;;;;;;;27.10;18.98;;;;;;;19.49;42.20;103246.63;5050390;28;20424;-40
2022/03/25 07:06:26;;;;;;;28.67;19.83;;;;;;;19.49;42.15;103241.25;5048454;28;20139;-41
2022/03/25 07:08:56;;;;;;;27.85;19.40;;;;;;;19.50;41.32;103243.00;5044502;28;20488;-41
2022/03/25 07:11:24;;;;;;;28.25;19.45;;;;;;;19.52;41.62;103240.19;5047116;28;20124;-40
2022/03/25 07:13:51;;;;;;;24.25;17.67;;;;;;;19.52;42.22;103246.44;5044040;28;20691;-40
2022/03/25 07:16:20;;;;;;;26.63;18.15;;;;;;;19.52;41.65;103248.25;5046295;28;20048;-40
2022/03/25 07:18:47;;;;;;;30.33;19.83;;;;;;;19.53;42.11;103247.28;5048317;28;20408;-40
2022/03/25 07:21:14;;;;;;;27.80;19.35;;;;;;;19.53;42.04;103252.66;5047304;28;20519;-41
2022/03/25 07:23:40;;;;;;;27.85;18.48;;;;;;;19.52;41.75;103251.81;5048460;28;20483;-40
2022/03/25 07:26:07;;;;;;;27.67;18.42;;;;;;;19.54;41.89;103249.88;5047781;28;20045;-40
2022/03/25 07:28:34;;;;;;;28.20;18.67;;;;;;;19.56;41.69;103263.22;5048763;28;20081;-40
2022/03/25 07:31:01;;;;;;;27.38;19.25;;;;;;;19.56;41.51;103260.53;5047073;28;20396;-40
2022/03/25 07:33:28;;;;;;;25.75;17.63;;;;;;;19.56;42.02;103264.09;5045584;28;20184;-40
2022/03/25 07:35:55;;;;;;;26.55;18.58;;;;;;;19.57;41.86;103265.78;5048084;28;20091;-40
2022/03/25 07:38:22;;;;;;;27.95;18.42;;;;;;;19.59;41.54;103271.09;5046551;28;20147;-41
2022/03/25 07:40:49;;;;;;;27.83;18.80;;;;;;;19.59;42.17;103269.25;5046027;28;20305;-40
2022/03/25 07:43:15;;;;;;;26.38;18.30;;;;;;;19.60;41.98;103270.97;5048713;28;20144;-40
2022/03/25 07:45:42;;;;;;;26.05;18.42;;;;;;;19.61;41.60;103278.09;5046243;28;20045;-41
2022/03/25 07:48:08;;;;;;;24.33;17.45;;;;;;;19.62;41.99;103277.16;5048580;28;20441;-40
2022/03/25 07:50:35;;;;;;;25.67;17.55;;;;;;;19.64;42.17;103277.03;5051185;28;20146;-41
2022/03/25 07:53:02;;;;;;;26.75;18.00;;;;;;;19.65;42.15;103278.75;5043450;28;20124;-41
2022/03/25 07:55:29;;;;;;;27.25;18.17;;;;;;;19.66;42.03;103281.38;5044315;28;20049;-41
2022/03/25 07:57:57;;;;;;;26.65;17.92;;;;;;;19.69;42.06;103280.28;5047036;28;20059;-41
2022/03/25 08:00:24;;;;;;;26.25;17.75;;;;;;;19.69;42.27;103297.28;5045607;28;20042;-41
2022/03/25 08:02:52;;;;;;;27.08;18.48;;;;;;;19.71;42.13;103289.13;5044941;28;20049;-40
2022/03/25 08:05:20;;;;;;;25.75;17.55;;;;;;;19.72;42.46;103294.38;5046372;28;20045;-41
2022/03/25 08:07:49;;;;;;;22.83;15.95;;;;;;;19.74;42.13;103288.91;5046250;28;20447;-40
2022/03/25 08:10:18;;;;;;;24.88;18.08;;;;;;;19.76;42.08;103297.72;5045635;28;20087;-40
2022/03/25 08:12:45;;;;;;;25.00;18.10;;;;;;;19.78;42.03;103300.31;5048082;28;20049;-41
2022/03/25 08:15:11;;;;;;;23.15;16.48;;;;;;;19.80;42.51;103301.06;5045521;28;20048;-40
2022/03/25 08:18:10;;;;;;;26.55;18.30;;;;;;;19.80;42.23;103301.06;5050005;28;20331;-40
2022/03/25 08:20:41;;;;;;;26.63;18.17;;;;;;;19.83;41.98;103304.41;5034172;28;20099;-40
2022/03/25 08:28:57;;;;;;;27.30;18.73;;;;;;;19.89;41.75;103313.88;5045187;28;20159;-42
2022/03/25 08:31:43;;;;;;;24.92;17.48;;;;;;;19.92;42.25;103314.53;5043920;28;20037;-41
2022/03/25 08:34:14;;;;;;;26.75;17.83;;;;;;;19.93;42.01;103318.09;5046911;28;20044;-40
2022/03/25 08:36:42;;;;;;;24.02;17.75;;;;;;;19.94;42.14;103320.69;5047225;28;20080;-41
2022/03/25 08:39:09;;;;;;;24.75;17.67;;;;;;;19.96;41.63;103315.19;5045577;28;20033;-41
2022/03/25 08:41:36;;;;;;;23.63;17.45;;;;;;;19.97;41.63;103314.22;5044154;28;20051;-41
2022/03/25 08:44:02;;;;;;;23.45;16.50;;;;;;;19.97;42.35;103314.22;5043950;28;20049;-41
2022/03/25 08:46:29;;;;;;;26.70;18.25;;;;;;;19.99;42.11;103317.69;5041717;28;20132;-41
2022/03/25 08:48:56;;;;;;;23.05;16.25;;;;;;;20.01;42.05;103321.13;5047511;28;20570;-41
2022/03/25 08:51:23;;;;;;;27.13;17.90;;;;;;;20.02;41.81;103328.25;5049415;28;20076;-41
2022/03/25 08:53:50;;;;;;;23.50;16.48;;;;;;;20.03;42.15;103324.56;5044558;28;20051;-41
2022/03/25 08:56:16;;;;;;;25.17;17.55;;;;;;;20.03;41.96;103321.03;5044961;28;20092;-41
2022/03/25 08:58:43;;;;;;;21.30;15.52;;;;;;;20.06;41.59;103315.41;5044201;28;20047;-42
2022/03/25 09:01:10;;;;;;;23.50;16.42;;;;;;;20.06;42.35;103321.69;5048506;28;20057;-41
2022/03/25 09:03:37;;;;;;;22.08;16.33;;;;;;;20.08;41.69;103324.25;5043785;28;20033;-41
2022/03/25 09:06:04;;;;;;;25.48;17.00;;;;;;;20.09;42.14;103320.59;5044011;28;20049;-41
2022/03/25 09:08:33;;;;;;;23.90;17.25;;;;;;;20.11;42.06;103334.81;5049017;28;20443;-41
2022/03/25 09:10:59;;;;;;;22.38;15.68;;;;;;;20.12;41.63;103331.16;5048835;28;20380;-41
2022/03/25 09:13:26;;;;;;;24.90;17.40;;;;;;;20.13;41.68;103333.72;5046831;28;20123;-41
2022/03/25 09:15:52;;;;;;;21.73;14.63;;;;;;;20.13;41.86;103336.41;5039667;28;20124;-41
2022/03/25 09:18:19;;;;;;;24.38;16.10;;;;;;;20.15;41.93;103331.81;5044330;28;20128;-40
2022/03/25 09:20:46;;;;;;;19.38;14.15;;;;;;;20.17;42.39;103331.69;5044407;28;20128;-41
2022/03/25 09:23:13;;;;;;;21.83;14.98;;;;;;;20.20;41.88;103340.41;5043721;28;20561;-41
2022/03/25 09:25:40;;;;;;;20.40;14.23;;;;;;;20.22;42.07;103334.91;5043958;28;20045;-40
2022/03/25 09:28:08;;;;;;;21.30;14.90;;;;;;;20.24;41.97;103335.69;5047707;28;20051;-41
2022/03/25 09:30:35;;;;;;;21.17;12.65;;;;;;;20.27;41.92;103338.16;5047009;28;20049;-41
2022/03/25 09:33:04;;;;;;;19.58;13.93;;;;;;;20.30;41.87;103339.75;5042606;28;20060;-41
2022/03/25 09:35:37;;;;;;;17.63;13.15;;;;;;;20.32;41.97;103338.69;5045406;28;20060;-41
2022/03/25 09:38:04;;;;;;;21.98;14.13;;;;;;;20.36;41.85;103333.94;5044414;28;20128;-41
2022/03/25 09:40:32;;;;;;;18.77;13.75;;;;;;;20.38;42.42;103332.00;5043397;28;20045;-41
2022/03/25 09:42:59;;;;;;;19.17;13.02;;;;;;;20.41;42.34;103329.09;5044889;28;20426;-41
2022/03/25 09:45:27;;;;;;;18.17;13.07;;;;;;;20.44;42.04;103336.97;5040602;28;20041;-41
2022/03/25 09:47:56;;;;;;;19.35;13.63;;;;;;;20.48;41.86;103337.63;5046966;28;20036;-41
2022/03/25 09:50:25;;;;;;;17.95;12.20;;;;;;;20.50;41.49;103328.47;5046987;28;20034;-42
2022/03/25 09:52:53;;;;;;;18.70;12.98;;;;;;;20.52;41.80;103323.84;5043778;28;20350;-41
2022/03/25 09:55:37;;;;;;;20.63;12.02;;;;;;;20.55;42.01;103322.78;5041919;28;20048;-41
2022/03/25 09:58:04;;;;;;;19.23;12.80;;;;;;;20.60;41.42;103334.06;5045541;28;20049;-41
2022/03/25 10:00:31;;;;;;;22.92;14.20;;;;;;;20.63;41.73;103331.16;5045654;28;20502;-41
2022/03/25 10:02:58;;;;;;;22.23;13.25;;;;;;;20.65;41.90;103332.75;5046911;28;20053;-42
2022/03/25 10:05:25;;;;;;;29.50;15.13;;;;;;;20.68;41.52;103329.00;5047465;28;20143;-43
2022/03/25 10:07:56;;;;;;;28.67;16.83;;;;;;;20.72;42.37;103329.63;5047185;28;20058;-41
2022/03/25 10:10:25;;;;;;;32.40;19.33;;;;;;;20.76;42.73;103326.59;5040649;28;20047;-42
2022/03/25 10:13:04;;;;;;;34.72;18.42;;;;;;;20.81;42.77;103323.56;5045620;28;20393;-44
2022/03/25 10:15:33;;;;;;;36.47;22.05;;;;;;;20.84;43.14;103313.44;5047125;28;20068;-42
2022/03/25 10:18:06;;;;;;;43.10;24.15;;;;;;;20.89;43.06;103324.72;5048578;28;20421;-41
2022/03/25 10:20:38;;;;;;;41.08;23.23;;;;;;;20.93;44.17;103317.28;5044613;28;20055;-43
2022/03/25 10:23:11;;;;;;;36.58;21.75;;;;;;;20.97;44.40;103320.63;5045708;28;20232;-42
2022/03/25 10:25:42;;;;;;;37.80;23.98;;;;;;;21.01;44.63;103314.03;5042763;28;20143;-43
2022/03/25 10:28:18;;;;;;;35.88;21.15;;;;;;;21.03;44.31;103302.16;5044646;28;20655;-43
2022/03/25 10:30:47;;;;;;;42.55;21.45;;;;;;;21.07;44.52;103309.06;5043570;28;20047;-42
2022/03/25 10:33:21;;;;;;;35.58;20.55;;;;;;;21.09;44.50;103312.47;5044154;28;20041;-43
2022/03/25 10:35:53;;;;;;;;;;;;;;;21.11;44.21;103310.53;5047069;28;20065;-42
2022/03/25 10:38:24;;;;;;;31.63;20.33;;;;;;;21.16;44.15;103308.34;5045743;28;19920;-42
2022/03/25 10:40:52;;;;;;;31.77;20.33;;;;;;;21.17;44.50;103309.22;5045633;28;20128;-41
2022/03/25 10:43:19;;;;;;;31.08;18.13;;;;;;;21.17;44.39;103301.13;5047284;28;20077;-41
2022/03/25 10:45:46;;;;;;;30.15;18.98;;;;;;;21.18;44.14;103301.00;5042804;28;20136;-42
2022/03/25 10:48:17;;;;;;;28.33;17.50;;;;;;;21.20;44.05;103295.50;5046426;28;20041;-41
2022/03/25 10:51:04;;;;;;;26.80;16.35;;;;;;;21.22;43.86;103298.06;5042008;28;20137;-41
2022/03/25 10:53:33;;;;;;;27.42;16.77;;;;;;;21.24;43.59;103307.78;5044549;28;20064;-41
2022/03/25 10:56:06;;;;;;;26.35;16.42;;;;;;;21.25;43.51;103309.50;5046039;28;20045;-41
2022/03/25 10:58:34;;;;;;;25.60;15.18;;;;;;;21.26;43.67;103307.66;5043864;28;20041;-41
2022/03/25 11:01:02;;;;;;;28.98;16.05;;;;;;;21.26;43.23;103299.56;5042131;28;20067;-41
2022/03/25 11:03:29;;;;;;;26.60;14.93;;;;;;;21.27;43.69;103304.00;5041794;28;20042;-41
2022/03/25 11:05:56;;;;;;;23.85;14.80;;;;;;;21.28;43.37;103300.31;5042922;28;20127;-41
2022/03/25 11:08:22;;;;;;;22.75;13.85;;;;;;;21.27;43.27;103293.22;5042255;28;20045;-41
2022/03/25 11:10:54;;;;;;;19.73;13.63;;;;;;;21.28;43.00;103303.88;5042416;28;20057;-41
2022/03/25 11:13:23;;;;;;;19.98;14.02;;;;;;;21.29;43.09;103296.66;5044338;28;20420;-41
2022/03/25 11:15:53;;;;;;;18.85;12.90;;;;;;;21.29;42.79;103300.19;5040912;28;20140;-41
2022/03/25 11:18:21;;;;;;;20.73;13.38;;;;;;;21.29;42.94;103292.09;5042442;28;20114;-41